HALF-HOURLY OBSERVATIONS INDEX

002

Kimberley - east

ARGYLE AERODROME

Site: 002064
Alt: 164.0m
101km SSW of KUNUNURRA


  Time     Wind        Temp  DP   Baro     Rain since   Rain past  Vis(m), Cloud(base in m), Weather
  local        km/h                         9am  last   hr   10m    
Mon 08:00  ESE 13/ 19  32.6 21.5  1010.3    0.0   0.0   0.0   0.0   10000 
Mon 08:30  ESE 11/ 17  33.2 22.0  1010.5    0.0   0.0   0.0   0.0   10000 
Mon 09:00    E 13/ 19  33.2 22.3  1010.5    0.0   0.0   0.0   0.0   10000 
Mon 09:30  ESE  9/ 19  34.0 23.1  1010.6    0.0   0.0   0.0   0.0   10000 
Mon 10:00  ENE  7/ 17  33.7 22.1  1010.1    0.0   0.0   0.0   0.0   10000 
Mon 10:30    E  7/ 13  34.2 22.3  1009.8    0.0   0.0   0.0   0.0   10000 
Mon 11:00  ESE 11/ 20  35.4 23.0  1009.2    0.0   0.0   0.0   0.0   10000 
Mon 11:30  ESE 11/ 22  36.0 23.2  1008.7    0.0   0.0   0.0   0.0   10000 
Mon 12:00    E 11/ 19  35.9 22.8  1008.2   ----  ----  ----   0.0   ----- 
Mon 12:30    E 11/ 20  36.9 23.4  1007.6   ----  ----  ----   0.0   10000|SC1680 
Mon 13:00    E 15/ 24  36.9 23.4  1007.0   ----  ----  ----   0.0   10000|SC2040 SC2340 
Mon 13:30  ESE 13/ 24  36.9 22.2  1006.4   ----   0.0   0.0   0.0   10000|SC1980 SC2310 BR2700 

HALLS CREEK AIRPORT

Site: 002079
Alt: 409.4m
km of


  Time     Wind        Temp  DP   Baro     Rain since   Rain past  Vis(m), Cloud(base in m), Weather
  local        km/h                         9am  last   hr   10m    
Mon 08:00  ESE  4/  9  31.2 21.4  1012.2    0.0   0.0   0.0   0.0   10000 
Mon 08:30  ESE  7/ 13  32.6 19.1  1012.6    0.0   0.0   0.0   0.0   10000 
Mon 09:00    E 11/ 19  33.5 20.6  1012.6    0.0   0.0   0.0   0.0   10000 
Mon 09:30    E  6/ 17  33.4 19.5  1012.6    0.0   0.0   0.0   0.0   10000|BR1980 
Mon 10:00  ESE 11/ 17  34.2 19.4  1012.2    0.0   0.0   0.0   0.0   10000|SC2070 SC2610 
Mon 10:30    E  7/ 15  34.4 19.2  1011.9    0.0   0.0   0.0   0.0   10000 
Mon 11:00  ESE 11/ 24  35.5 20.2  1011.3    0.0   0.0   0.0   0.0   10000 
Mon 11:30    E 15/ 28  35.5 19.0  1010.8    0.0   0.0   0.0   0.0   10000 
Mon 12:00    E 19/ 32  36.0 19.0  1010.1    0.0   0.0   0.0   0.0   10000 
Mon 12:30    E 19/ 24  36.0 18.6  1009.6    0.0   0.0   0.0   0.0   10000|SC2130 
Mon 13:00    E 15/ 28  36.4 18.9  1009.1    0.0   0.0   0.0   0.0   10000|SC2070 
Mon 13:30    E 20/ 28  37.0 19.0  1008.9    0.0   0.0   0.0   0.0   10000|SC2580 

KUNUNURRA AERO

Site: 002056
Alt: 44.0m
3km WSW of KUNUNURRA


  Time     Wind        Temp  DP   Baro     Rain since   Rain past  Vis(m), Cloud(base in m), Weather
  local        km/h                         9am  last   hr   10m    
Mon 08:00    S 11/ 13  32.3 24.6  1008.9    0.0   0.0   0.0   0.0   10000 
Mon 08:30   SE  9/ 15  33.3 24.5  1008.9   ----  ----  ----   0.0   10000 
Mon 09:00  SSE 11/ 17  33.6 24.8  1008.7   ----  ----  ----   0.0   10000 
Mon 09:30   SE 11/ 17  34.4 25.2  1008.5    0.0  ----  ----   0.0   10000 
Mon 10:00   SE 13/ 20  34.6 24.2  1008.1    0.0   0.0  ----   0.0   10000 
Mon 10:30  ENE 13/ 20  35.1 25.0  1007.6    0.0   0.0   0.0   0.0   10000|SC1380 
Mon 11:00  ESE 17/ 22  35.6 25.2  1007.4    0.0   0.0   0.0   0.0   10000|SC1500 
Mon 11:30   SE 17/ 22  36.2 24.4  1007.0    0.0   0.0   0.0   0.0   10000 
Mon 12:00   SE 17/ 22  35.6 23.9  1006.6    0.0   0.0   0.0   0.0   10000|SC1740 SC2520 
Mon 12:30    E 15/ 22  36.1 24.3  1006.1    0.0   0.0   0.0   0.0   10000|SC1830 SC2190 
Mon 13:00  ESE 17/ 26  36.0 22.9  1005.7    0.0   0.0   0.0   0.0   10000|SC1950 SC2820 
Mon 13:30   SE 15/ 20  36.5 24.4  1005.1    0.0   0.0   0.0   0.0   10000|SC2010 SC2370